createdAt,value
2017-09-18T00:02:17.799Z,13.10
2017-09-18T00:07:16.127Z,13.10
2017-09-18T00:09:44.410Z,13.10
2017-09-18T00:12:13.459Z,13.00
2017-09-18T00:14:41.810Z,13.00
2017-09-18T00:17:10.107Z,13.00
2017-09-18T00:19:39.163Z,13.00
2017-09-18T00:24:37.422Z,12.90
2017-09-18T00:27:06.099Z,12.90
2017-09-18T00:29:37.406Z,12.90
2017-09-18T00:32:06.471Z,12.90
2017-09-18T00:34:34.755Z,12.80
2017-09-18T00:39:33.519Z,12.80
2017-09-18T00:42:02.195Z,12.80
2017-09-18T00:49:29.943Z,12.80
2017-09-18T00:51:58.676Z,12.80
2017-09-18T00:54:26.991Z,12.80
2017-09-18T00:56:55.308Z,12.80
2017-09-18T00:59:23.668Z,12.80
2017-09-18T01:01:51.946Z,12.80
2017-09-18T01:04:20.230Z,12.80
2017-09-18T01:09:18.067Z,12.80
2017-09-18T01:14:16.314Z,12.80
2017-09-18T01:16:45.767Z,12.90
2017-09-18T01:19:14.820Z,12.90
2017-09-18T01:21:43.168Z,12.80
2017-09-18T01:24:11.496Z,12.70
2017-09-18T01:29:39.643Z,12.70
2017-09-18T01:34:38.241Z,12.70
2017-09-18T01:37:06.596Z,12.70
2017-09-18T01:39:35.119Z,12.70
2017-09-18T01:42:03.431Z,12.70
2017-09-18T01:44:31.814Z,12.70
2017-09-18T01:47:01.268Z,12.70
2017-09-18T01:49:29.559Z,12.70
2017-09-18T01:51:57.925Z,12.80
2017-09-18T01:54:27.730Z,12.80
2017-09-18T01:56:57.531Z,12.80
2017-09-18T01:59:29.899Z,12.80
2017-09-18T02:01:58.578Z,12.80
2017-09-18T02:04:26.866Z,12.80
2017-09-18T02:06:55.210Z,12.80
2017-09-18T02:09:23.496Z,12.80
2017-09-18T02:11:52.543Z,12.80
2017-09-18T02:14:22.454Z,12.80
2017-09-18T02:16:50.735Z,12.80
2017-09-18T02:19:19.015Z,12.80
2017-09-18T02:21:47.362Z,12.80
2017-09-18T02:24:15.644Z,12.80
2017-09-18T02:26:43.947Z,12.80
2017-09-18T02:29:12.288Z,12.80
2017-09-18T02:31:41.380Z,12.80
2017-09-18T02:34:10.516Z,12.80
2017-09-18T02:36:39.987Z,12.80
2017-09-18T02:39:08.277Z,12.80
2017-09-18T02:41:36.560Z,12.80
2017-09-18T02:44:06.860Z,12.80
2017-09-18T02:46:35.139Z,12.80
2017-09-18T02:49:04.926Z,12.80
2017-09-18T02:51:34.414Z,12.80
2017-09-18T02:54:03.464Z,12.80
2017-09-18T02:56:32.506Z,12.80
2017-09-18T02:59:00.839Z,12.80
2017-09-18T03:01:30.623Z,12.80
2017-09-18T03:03:58.910Z,12.80
2017-09-18T03:06:27.641Z,12.80
2017-09-18T03:08:55.927Z,12.80
2017-09-18T03:11:25.352Z,12.80
2017-09-18T03:13:54.087Z,12.80
2017-09-18T03:16:23.507Z,12.90
2017-09-18T03:18:51.791Z,12.90
2017-09-18T03:21:20.130Z,12.90
2017-09-18T03:23:48.411Z,12.90
2017-09-18T03:26:16.700Z,12.90
2017-09-18T03:28:45.050Z,13.00
2017-09-18T03:31:14.851Z,12.90
2017-09-18T03:33:43.161Z,12.90
2017-09-18T03:36:12.272Z,12.90
2017-09-18T03:38:40.578Z,12.90
2017-09-18T03:41:10.391Z,12.90
2017-09-18T03:43:39.057Z,12.90
2017-09-18T03:46:08.522Z,12.90
2017-09-18T03:48:36.820Z,12.80
2017-09-18T03:51:05.163Z,12.90
2017-09-18T03:53:34.248Z,12.80
2017-09-18T03:56:03.283Z,12.80
2017-09-18T03:58:31.615Z,12.80
2017-09-18T04:00:59.899Z,12.80
2017-09-18T04:03:28.197Z,12.80
2017-09-18T04:05:56.538Z,12.70
2017-09-18T04:08:25.586Z,12.70
2017-09-18T04:10:53.884Z,12.70
2017-09-18T04:13:22.971Z,12.70
2017-09-18T04:15:52.014Z,12.70
2017-09-18T04:18:20.291Z,12.60
2017-09-18T04:20:48.619Z,12.60
2017-09-18T04:23:16.903Z,12.60
2017-09-18T04:25:45.209Z,12.70
2017-09-18T04:28:13.580Z,12.60
2017-09-18T04:30:42.655Z,12.60
2017-09-18T04:33:10.959Z,12.70
2017-09-18T04:35:39.338Z,12.70
2017-09-18T04:38:07.628Z,12.70
2017-09-18T04:40:35.913Z,12.70
2017-09-18T04:43:05.048Z,12.70
2017-09-18T04:45:34.094Z,12.70
2017-09-18T04:48:02.382Z,12.70
2017-09-18T04:50:30.703Z,12.70
2017-09-18T04:52:59.762Z,12.70
2017-09-18T04:55:28.842Z,12.70
2017-09-18T04:57:57.167Z,12.70
2017-09-18T05:00:26.578Z,12.70
2017-09-18T05:07:54.343Z,12.70
2017-09-18T05:10:22.636Z,12.70
2017-09-18T05:12:51.731Z,12.70
2017-09-18T05:15:20.787Z,12.70
2017-09-18T05:17:49.834Z,12.70
2017-09-18T05:20:18.171Z,12.70
2017-09-18T05:22:47.237Z,12.70
2017-09-18T05:25:15.541Z,12.70
2017-09-18T05:27:43.932Z,12.70
2017-09-18T05:30:13.399Z,12.70
2017-09-18T05:35:11.696Z,12.70
2017-09-18T05:37:40.767Z,12.70
2017-09-18T05:40:10.597Z,12.70
2017-09-18T05:42:40.123Z,12.70
2017-09-18T05:45:08.416Z,12.70
2017-09-18T05:47:36.703Z,12.70
2017-09-18T05:50:05.034Z,12.70
2017-09-18T05:52:34.455Z,12.70
2017-09-18T05:55:03.508Z,12.70
2017-09-18T05:57:32.604Z,12.70
2017-09-18T06:00:01.656Z,12.60
2017-09-18T06:02:29.948Z,12.70
2017-09-18T06:09:57.715Z,12.70
2017-09-18T06:12:26.051Z,12.80
2017-09-18T06:14:55.467Z,12.80
2017-09-18T06:17:24.512Z,12.80
2017-09-18T06:19:53.632Z,12.80
2017-09-18T06:22:21.916Z,12.90
2017-09-18T06:24:51.709Z,12.90
2017-09-18T06:27:20.427Z,13.00
2017-09-18T06:29:49.855Z,13.00
2017-09-18T06:32:18.150Z,13.00
2017-09-18T06:34:46.535Z,13.00
2017-09-18T06:37:15.596Z,13.00
2017-09-18T06:39:45.402Z,13.00
2017-09-18T06:42:13.750Z,13.10
2017-09-18T06:44:43.179Z,13.10
2017-09-18T06:47:11.515Z,13.20
2017-09-18T06:49:41.378Z,13.20
2017-09-18T06:52:10.481Z,13.30
2017-09-18T06:54:39.166Z,13.30
2017-09-18T06:57:08.271Z,13.40
2017-09-18T07:02:06.819Z,13.50
2017-09-18T07:04:35.538Z,13.50
2017-09-18T07:07:03.820Z,13.50
2017-09-18T07:12:02.062Z,13.60
2017-09-18T07:14:30.346Z,13.60
2017-09-18T07:16:58.630Z,13.60
2017-09-18T07:19:26.950Z,13.60
2017-09-18T07:21:55.226Z,13.60
2017-09-18T07:24:23.502Z,13.60
2017-09-18T07:26:51.826Z,13.60
2017-09-18T07:29:21.251Z,13.70
2017-09-18T07:31:49.543Z,13.70
2017-09-18T07:34:19.022Z,13.80
2017-09-18T07:39:17.219Z,13.80
2017-09-18T07:44:15.461Z,13.90
2017-09-18T07:46:43.768Z,13.90
2017-09-18T07:49:12.164Z,13.90
2017-09-18T07:51:40.486Z,14.00
2017-09-18T07:54:09.937Z,14.00
2017-09-18T07:56:39.083Z,14.00
2017-09-18T07:59:08.131Z,14.00
2017-09-18T08:01:36.432Z,14.00
2017-09-18T08:04:04.787Z,14.00
2017-09-18T08:06:33.067Z,14.10
2017-09-18T08:09:01.355Z,14.10
2017-09-18T08:11:29.711Z,14.10
2017-09-18T08:16:27.512Z,14.10
2017-09-18T08:18:55.852Z,14.10
2017-09-18T08:21:24.131Z,14.10
2017-09-18T08:23:53.187Z,14.10
2017-09-18T08:26:21.524Z,14.10
2017-09-18T08:28:50.570Z,14.20
2017-09-18T08:31:19.618Z,14.20
2017-09-18T08:33:48.008Z,14.20
2017-09-18T08:36:16.305Z,14.20
2017-09-18T08:38:45.722Z,14.30
2017-09-18T08:41:14.077Z,14.30
2017-09-18T08:43:42.373Z,14.30
2017-09-18T08:46:10.666Z,14.30
2017-09-18T08:48:39.055Z,14.30
2017-09-18T08:51:07.346Z,14.30
2017-09-18T08:53:37.144Z,14.30
2017-09-18T08:56:05.478Z,14.30
2017-09-18T08:58:33.764Z,14.20
2017-09-18T09:01:02.072Z,14.20
2017-09-18T09:08:29.474Z,14.00
2017-09-18T09:10:57.812Z,13.90
2017-09-18T09:13:27.237Z,13.80
2017-09-18T09:15:55.514Z,13.80
2017-09-18T09:18:23.868Z,13.80
2017-09-18T09:20:52.155Z,13.80
2017-09-18T09:23:20.445Z,13.70
2017-09-18T09:25:48.799Z,13.70
2017-09-18T09:30:46.616Z,13.70
2017-09-18T09:33:14.953Z,13.80
2017-09-18T09:35:43.288Z,13.80
2017-09-18T09:38:11.627Z,13.90
2017-09-18T09:40:40.726Z,13.90
2017-09-18T09:43:09.804Z,14.00
2017-09-18T09:45:38.856Z,13.90
2017-09-18T09:50:37.140Z,13.90
2017-09-18T09:55:35.403Z,13.90
2017-09-18T09:58:05.199Z,13.90
2017-09-18T10:00:34.247Z,13.90
2017-09-18T10:03:02.575Z,13.90
2017-09-18T10:05:32.375Z,13.90
2017-09-18T10:08:00.658Z,13.90
2017-09-18T10:10:29.002Z,13.90
2017-09-18T10:12:58.451Z,13.90
2017-09-18T10:17:56.319Z,13.90
2017-09-18T10:22:55.610Z,13.90
2017-09-18T10:25:24.716Z,14.10
2017-09-18T10:27:53.007Z,14.00
2017-09-18T10:30:21.295Z,14.00
2017-09-18T10:32:51.176Z,14.00
2017-09-18T10:35:19.475Z,14.10
2017-09-18T10:37:47.777Z,14.10
2017-09-18T10:40:17.272Z,14.20
2017-09-18T10:42:45.597Z,14.30
2017-09-18T10:45:14.654Z,14.60
2017-09-18T10:47:43.754Z,14.70
2017-09-18T10:50:12.055Z,14.90
2017-09-18T10:52:40.364Z,15.00
2017-09-18T10:55:08.750Z,15.20
2017-09-18T10:57:37.070Z,15.30
2017-09-18T11:00:06.126Z,15.30
2017-09-18T11:02:34.462Z,15.40
2017-09-18T11:05:03.515Z,15.50
2017-09-18T11:07:32.571Z,15.50
2017-09-18T11:10:02.051Z,15.50
2017-09-18T11:12:31.111Z,15.50
2017-09-18T11:14:59.403Z,15.60
2017-09-18T11:17:28.894Z,15.70
2017-09-18T11:19:57.958Z,15.80
2017-09-18T11:22:27.011Z,15.90
2017-09-18T11:24:55.344Z,16.00
2017-09-18T11:27:23.634Z,16.10
2017-09-18T11:32:21.935Z,16.30
2017-09-18T11:34:50.615Z,16.40
2017-09-18T11:39:48.879Z,16.50
2017-09-18T11:42:17.972Z,16.50
2017-09-18T11:44:47.035Z,16.50
2017-09-18T11:47:16.181Z,16.40
2017-09-18T11:49:44.509Z,16.40
2017-09-18T11:52:12.846Z,16.50
2017-09-18T11:54:41.194Z,16.60
2017-09-18T11:57:10.625Z,16.60
2017-09-18T11:59:38.922Z,16.60
2017-09-18T12:02:07.278Z,16.70
2017-09-18T12:04:35.565Z,16.80
2017-09-18T12:07:03.873Z,16.90
2017-09-18T12:09:32.202Z,17.00
2017-09-18T12:12:01.627Z,17.10
2017-09-18T12:14:29.919Z,17.20
2017-09-18T12:16:58.246Z,17.20
2017-09-18T12:19:26.539Z,17.30
2017-09-18T12:21:54.815Z,17.30
2017-09-18T12:24:23.159Z,17.30
2017-09-18T12:26:52.940Z,17.40
2017-09-18T12:29:21.219Z,17.50
2017-09-18T12:31:49.547Z,17.60
2017-09-18T12:34:18.223Z,17.80
2017-09-18T12:36:46.494Z,17.80
2017-09-18T12:39:14.845Z,18.00
2017-09-18T12:41:43.138Z,18.10
2017-09-18T12:44:11.466Z,18.30
2017-09-18T12:46:40.532Z,18.20
2017-09-18T12:49:09.211Z,18.30
2017-09-18T12:51:37.493Z,18.20
2017-09-18T12:54:05.827Z,18.20
2017-09-18T12:56:35.615Z,18.10
2017-09-18T12:59:04.676Z,18.00
2017-09-18T13:01:34.147Z,17.90
2017-09-18T13:04:02.430Z,17.80
2017-09-18T13:06:30.699Z,17.70
2017-09-18T13:09:00.154Z,17.70
2017-09-18T13:11:28.430Z,17.60
2017-09-18T13:13:58.215Z,17.60
2017-09-18T13:16:26.539Z,17.60
2017-09-18T13:18:54.815Z,17.60
2017-09-18T13:21:23.088Z,17.40
2017-09-18T13:23:51.408Z,17.30
2017-09-18T13:26:20.819Z,17.20
2017-09-18T13:28:49.099Z,17.20
2017-09-18T13:33:49.347Z,17.00
2017-09-18T13:36:17.648Z,16.80
2017-09-18T13:38:46.020Z,16.60
2017-09-18T13:41:14.338Z,16.40
2017-09-18T13:43:42.666Z,16.20
2017-09-18T13:46:11.823Z,16.00
2017-09-18T13:48:40.532Z,15.90
2017-09-18T13:51:08.873Z,15.80
2017-09-18T13:53:37.962Z,15.70
2017-09-18T13:56:06.240Z,15.50
2017-09-18T13:58:34.514Z,15.40
2017-09-18T14:01:02.845Z,15.20
2017-09-18T14:03:31.110Z,15.00
2017-09-18T14:05:59.386Z,14.90
2017-09-18T14:08:27.743Z,14.80
2017-09-18T14:10:56.912Z,14.70
2017-09-18T14:13:25.195Z,14.70
2017-09-18T14:15:53.517Z,14.50
2017-09-18T14:18:21.782Z,14.60
2017-09-18T14:20:50.058Z,14.50
2017-09-18T14:23:18.410Z,14.50
2017-09-18T14:25:46.707Z,14.50
2017-09-18T14:28:15.381Z,14.50
2017-09-18T14:30:43.721Z,14.50
2017-09-18T14:33:12.088Z,14.60
2017-09-18T14:35:41.890Z,14.60
2017-09-18T14:38:10.233Z,14.60
2017-09-18T14:40:38.551Z,14.60
2017-09-18T14:43:06.847Z,14.60
2017-09-18T14:45:35.258Z,14.60
2017-09-18T14:48:04.311Z,14.60
2017-09-18T14:50:33.359Z,14.50
2017-09-18T14:53:02.858Z,14.40
2017-09-18T14:55:31.150Z,14.20
2017-09-18T14:57:59.431Z,14.10
2017-09-18T15:00:27.786Z,14.00
2017-09-18T15:02:56.060Z,13.90
2017-09-18T15:05:25.107Z,13.90
2017-09-18T15:07:54.572Z,13.90
2017-09-18T15:10:23.246Z,13.90
2017-09-18T15:12:51.523Z,13.90
2017-09-18T15:15:19.855Z,13.80
2017-09-18T15:17:48.136Z,13.70
2017-09-18T15:20:16.411Z,13.60
2017-09-18T15:25:14.272Z,13.40
2017-09-18T15:27:42.576Z,13.40
2017-09-18T15:30:12.427Z,13.30
2017-09-18T15:32:40.727Z,13.40
2017-09-18T15:35:09.807Z,13.30
2017-09-18T15:37:39.173Z,13.40
2017-09-18T15:40:07.457Z,13.40
2017-09-18T15:42:37.235Z,13.40
2017-09-18T15:45:05.562Z,13.40
2017-09-18T15:47:36.495Z,13.40
2017-09-18T15:50:05.191Z,13.40
2017-09-18T15:52:33.511Z,13.40
2017-09-18T15:55:02.551Z,13.40
2017-09-18T15:57:31.609Z,13.40
2017-09-18T16:00:00.307Z,13.40
2017-09-18T16:02:29.728Z,13.40
2017-09-18T16:04:58.007Z,13.40
2017-09-18T16:07:26.619Z,13.40
2017-09-18T16:09:56.035Z,13.40
2017-09-18T16:12:24.319Z,13.40
2017-09-18T16:14:52.650Z,13.40
2017-09-18T16:17:20.927Z,13.40
2017-09-18T16:19:49.220Z,13.40
2017-09-18T16:22:17.587Z,13.50
2017-09-18T16:24:45.887Z,13.40
2017-09-18T16:27:15.319Z,13.50
2017-09-18T16:29:43.642Z,13.50
2017-09-18T16:32:11.949Z,13.40
2017-09-18T16:34:41.123Z,13.40
2017-09-18T16:39:39.529Z,13.50
2017-09-18T16:42:07.807Z,13.50
2017-09-18T16:44:37.651Z,13.50
2017-09-18T16:47:05.927Z,13.50
2017-09-18T16:49:34.212Z,13.50
2017-09-18T16:52:02.559Z,13.50
2017-09-18T16:54:31.227Z,13.50
2017-09-18T16:57:00.283Z,13.60
2017-09-18T16:59:28.625Z,13.50
2017-09-18T17:01:56.902Z,13.60
2017-09-18T17:04:25.185Z,13.60
2017-09-18T17:06:53.515Z,13.60
2017-09-18T17:09:23.307Z,13.60
2017-09-18T17:11:51.583Z,13.50
2017-09-18T17:19:19.320Z,13.50
2017-09-18T17:21:47.671Z,13.50
2017-09-18T17:24:16.749Z,13.50
2017-09-18T17:26:45.802Z,13.40
2017-09-18T17:29:14.175Z,13.40
2017-09-18T17:31:43.617Z,13.40
2017-09-18T17:34:11.924Z,13.30
2017-09-18T17:36:40.292Z,13.40
2017-09-18T17:39:09.691Z,13.30
2017-09-18T17:41:38.375Z,13.30
2017-09-18T17:44:06.703Z,13.10
2017-09-18T17:46:34.979Z,13.20
2017-09-18T17:51:33.594Z,13.20
2017-09-18T17:54:01.880Z,13.20
2017-09-18T17:56:31.678Z,13.30
2017-09-18T17:59:01.147Z,13.30
2017-09-18T18:01:30.191Z,13.20
2017-09-18T18:03:59.226Z,13.20
2017-09-18T18:08:57.458Z,13.30
2017-09-18T18:11:25.735Z,13.30
2017-09-18T18:13:54.076Z,13.20
2017-09-18T18:16:23.859Z,13.20
2017-09-18T18:18:52.144Z,13.20
2017-09-18T18:21:20.479Z,13.20
2017-09-18T18:23:48.756Z,13.10
2017-09-18T18:26:17.046Z,13.10
2017-09-18T18:28:45.410Z,13.10
2017-09-18T18:31:14.845Z,13.10
2017-09-18T18:33:43.145Z,13.10
2017-09-18T18:36:11.529Z,13.00
2017-09-18T18:38:39.831Z,13.00
2017-09-18T18:41:08.897Z,13.00
2017-09-18T18:43:38.003Z,13.00
2017-09-18T18:48:37.285Z,13.00
2017-09-18T18:51:05.607Z,13.00
2017-09-18T18:53:34.699Z,13.10
2017-09-18T18:56:04.116Z,13.10
2017-09-18T18:58:32.447Z,13.10
2017-09-18T19:01:00.732Z,13.10
2017-09-18T19:03:29.019Z,13.10
2017-09-18T19:05:58.127Z,13.00
2017-09-18T19:08:26.415Z,13.10
2017-09-18T19:10:57.100Z,13.10
2017-09-18T19:13:25.430Z,13.10
2017-09-18T19:15:55.283Z,13.10
2017-09-18T19:18:23.585Z,13.10
2017-09-18T19:20:52.340Z,13.10
2017-09-18T19:25:50.910Z,13.10
2017-09-18T19:28:20.421Z,13.20
2017-09-18T19:30:49.103Z,13.10
2017-09-18T19:33:17.390Z,13.10
2017-09-18T19:35:45.778Z,13.10
2017-09-18T19:38:14.080Z,13.10
2017-09-18T19:40:42.438Z,13.10
2017-09-18T19:43:10.808Z,13.20
2017-09-18T19:45:39.106Z,13.20
2017-09-18T19:48:08.918Z,13.20
2017-09-18T19:50:37.242Z,13.20
2017-09-18T19:55:35.075Z,13.20
2017-09-18T19:58:03.738Z,13.20
2017-09-18T20:00:33.536Z,13.30
2017-09-18T20:03:02.626Z,13.20
2017-09-18T20:05:31.728Z,13.20
2017-09-18T20:08:00.064Z,13.20
2017-09-18T20:10:28.355Z,13.20
2017-09-18T20:12:57.095Z,13.20
2017-09-18T20:15:25.387Z,13.20
2017-09-18T20:17:53.671Z,13.20
2017-09-18T20:20:22.036Z,13.20
2017-09-18T20:22:50.327Z,13.20
2017-09-18T20:27:48.562Z,13.20
2017-09-18T20:30:16.848Z,13.20
2017-09-18T20:32:46.268Z,13.20
2017-09-18T20:35:14.644Z,13.10
2017-09-18T20:37:42.973Z,13.10
2017-09-18T20:42:41.243Z,13.10
2017-09-18T20:45:09.567Z,13.10
2017-09-18T20:47:37.855Z,13.00
2017-09-18T20:50:06.608Z,13.10
2017-09-18T20:52:34.887Z,13.10
2017-09-18T20:57:32.786Z,13.10
2017-09-18T21:00:01.083Z,13.10
2017-09-18T21:02:29.402Z,13.10
2017-09-18T21:04:57.761Z,13.10
2017-09-18T21:07:26.063Z,13.10
2017-09-18T21:09:54.364Z,13.10
2017-09-18T21:14:52.243Z,13.10
2017-09-18T21:17:20.531Z,13.20
2017-09-18T21:19:48.875Z,13.20
2017-09-18T21:22:17.943Z,13.20
2017-09-18T21:24:46.231Z,13.30
2017-09-18T21:27:15.366Z,13.30
2017-09-18T21:29:44.430Z,13.30
2017-09-18T21:34:43.813Z,13.30
2017-09-18T21:37:12.881Z,13.30
2017-09-18T21:39:41.216Z,13.40
2017-09-18T21:42:09.584Z,13.40
2017-09-18T21:44:39.388Z,13.30
2017-09-18T21:47:07.675Z,13.30
2017-09-18T21:52:05.923Z,13.40
2017-09-18T21:57:04.183Z,13.40
2017-09-18T21:59:36.696Z,13.40
2017-09-18T22:02:04.978Z,13.40
2017-09-18T22:04:33.271Z,13.40
2017-09-18T22:07:03.143Z,13.50
2017-09-18T22:09:32.999Z,13.50
2017-09-18T22:14:32.351Z,13.50
2017-09-18T22:17:00.659Z,13.50
2017-09-18T22:19:28.955Z,13.50
2017-09-18T22:21:57.311Z,13.60
2017-09-18T22:24:25.599Z,13.60
2017-09-18T22:26:55.391Z,13.60
2017-09-18T22:29:23.743Z,13.60
2017-09-18T22:31:52.035Z,13.60
2017-09-18T22:34:21.831Z,13.60
2017-09-18T22:39:20.089Z,13.60
2017-09-18T22:41:49.515Z,13.70
2017-09-18T22:44:17.854Z,13.70
2017-09-18T22:46:46.912Z,13.70
2017-09-18T22:49:15.211Z,13.70
2017-09-18T22:51:44.433Z,13.70
2017-09-18T22:54:12.740Z,13.70
2017-09-18T22:56:42.547Z,13.70
2017-09-18T22:59:10.920Z,13.70
2017-09-18T23:01:39.246Z,13.60
2017-09-18T23:04:07.544Z,13.60
2017-09-18T23:06:35.915Z,13.60
2017-09-18T23:09:04.977Z,13.60
2017-09-18T23:11:34.075Z,13.60
2017-09-18T23:14:03.962Z,13.60
2017-09-18T23:16:32.251Z,13.70
2017-09-18T23:19:01.682Z,13.70
2017-09-18T23:21:30.488Z,13.70
2017-09-18T23:23:58.800Z,13.70
2017-09-18T23:26:27.120Z,13.80
2017-09-18T23:28:57.059Z,13.80
2017-09-18T23:31:25.351Z,13.80
2017-09-18T23:33:54.038Z,13.70
2017-09-18T23:36:22.382Z,13.70
2017-09-18T23:38:51.451Z,13.80
2017-09-18T23:41:19.774Z,13.70
2017-09-18T23:46:17.638Z,13.60
2017-09-18T23:48:46.698Z,13.50
2017-09-18T23:51:15.083Z,13.60
2017-09-18T23:53:43.396Z,13.60
2017-09-18T23:56:11.709Z,13.60
2017-09-18T23:58:40.067Z,13.60
